createdAt,value
2023-08-23T00:00:35.277Z,65.06
2023-08-23T00:01:37.137Z,65.93
2023-08-23T00:02:39.075Z,65.70
2023-08-23T00:03:40.925Z,66.05
2023-08-23T00:04:42.758Z,65.40
2023-08-23T00:05:44.820Z,65.77
2023-08-23T00:06:47.221Z,66.47
2023-08-23T00:07:49.202Z,66.19
2023-08-23T00:08:51.337Z,65.90
2023-08-23T00:09:53.380Z,65.61
2023-08-23T00:10:56.351Z,66.03
2023-08-23T00:11:58.661Z,66.16
2023-08-23T00:13:00.821Z,65.63
2023-08-23T00:14:02.667Z,66.44
2023-08-23T00:15:05.727Z,66.56
2023-08-23T00:16:07.696Z,66.65
2023-08-23T00:17:09.739Z,65.90
2023-08-23T00:18:11.599Z,66.00
2023-08-23T00:19:13.551Z,65.93
2023-08-23T00:20:15.477Z,66.61
2023-08-23T00:21:17.547Z,66.10
2023-08-23T00:22:19.443Z,66.32
2023-08-23T00:23:21.274Z,66.06
2023-08-23T00:24:23.233Z,65.95
2023-08-23T00:25:25.118Z,66.35
2023-08-23T00:26:26.932Z,65.78
2023-08-23T00:27:28.793Z,66.68
2023-08-23T00:28:30.627Z,65.77
2023-08-23T00:29:32.554Z,65.57
2023-08-23T00:30:34.473Z,65.89
2023-08-23T00:31:36.481Z,66.03
2023-08-23T00:32:38.633Z,66.14
2023-08-23T00:33:42.066Z,66.03
2023-08-23T00:34:44.017Z,65.32
2023-08-23T00:35:46.004Z,65.98
2023-08-23T00:36:47.942Z,66.17
2023-08-23T00:37:49.814Z,65.77
2023-08-23T00:38:51.596Z,65.57
2023-08-23T00:39:53.369Z,65.58
2023-08-23T00:40:55.279Z,66.07
2023-08-23T00:41:57.315Z,65.61
2023-08-23T00:42:59.154Z,65.77
2023-08-23T00:44:00.955Z,65.86
2023-08-23T00:45:02.874Z,65.55
2023-08-23T00:46:05.878Z,66.40
2023-08-23T00:47:07.783Z,66.05
2023-08-23T00:48:12.970Z,65.86
2023-08-23T00:49:15.384Z,65.78
2023-08-23T00:50:17.293Z,65.74
2023-08-23T00:51:20.365Z,65.79
2023-08-23T00:52:22.260Z,65.77
2023-08-23T00:53:24.122Z,65.64
2023-08-23T00:54:25.976Z,65.64
2023-08-23T00:55:28.258Z,65.88
2023-08-23T00:56:31.683Z,65.68
2023-08-23T00:57:33.676Z,65.68
2023-08-23T00:58:36.020Z,65.78
2023-08-23T00:59:38.754Z,66.35
2023-08-23T01:00:42.622Z,65.65
2023-08-23T01:01:44.491Z,65.70
2023-08-23T01:02:46.580Z,65.88
2023-08-23T01:03:50.822Z,65.45
2023-08-23T01:04:52.627Z,65.28
2023-08-23T01:06:09.228Z,65.15
2023-08-23T01:07:18.878Z,65.78
2023-08-23T01:09:14.372Z,66.41
2023-08-23T01:10:26.431Z,66.15
2023-08-23T01:11:46.734Z,65.95
2023-08-23T01:13:10.281Z,66.40
2023-08-23T01:14:32.334Z,65.87
2023-08-23T01:15:35.662Z,66.11
2023-08-23T01:16:41.899Z,66.63
2023-08-23T01:17:44.938Z,66.88
2023-08-23T01:18:48.051Z,66.74
2023-08-23T01:19:51.900Z,66.34
2023-08-23T01:20:54.779Z,66.73
2023-08-23T01:21:58.747Z,67.02
2023-08-23T01:23:15.481Z,67.08
2023-08-23T01:24:17.452Z,67.77
2023-08-23T01:25:19.315Z,67.80
2023-08-23T01:26:21.200Z,67.77
2023-08-23T01:27:23.340Z,67.38
2023-08-23T01:28:25.536Z,67.53
2023-08-23T01:29:27.370Z,67.73
2023-08-23T01:30:30.509Z,67.63
2023-08-23T01:31:41.191Z,67.71
2023-08-23T01:33:02.683Z,67.46
2023-08-23T01:34:23.988Z,67.57
2023-08-23T01:36:08.601Z,68.30
2023-08-23T01:37:12.174Z,67.28
2023-08-23T01:38:17.528Z,67.96
2023-08-23T01:39:25.633Z,67.99
2023-08-23T01:40:28.466Z,67.13
2023-08-23T01:41:30.872Z,67.46
2023-08-23T01:42:33.040Z,67.62
2023-08-23T01:43:34.841Z,67.85
2023-08-23T01:44:36.706Z,67.62
2023-08-23T01:45:38.534Z,67.44
2023-08-23T01:46:40.325Z,67.60
2023-08-23T01:47:42.205Z,67.87
2023-08-23T01:48:44.385Z,68.17
2023-08-23T01:49:46.251Z,68.45
2023-08-23T01:50:51.717Z,68.37
2023-08-23T01:51:53.572Z,68.45
2023-08-23T01:52:55.356Z,68.74
2023-08-23T01:53:57.200Z,68.99
2023-08-23T01:54:59.101Z,68.99
2023-08-23T01:56:01.895Z,68.71
2023-08-23T01:57:03.893Z,69.10
2023-08-23T01:58:05.843Z,68.55
2023-08-23T01:59:07.737Z,69.30
2023-08-23T02:00:11.137Z,69.25
2023-08-23T02:01:13.576Z,69.04
2023-08-23T02:02:15.427Z,68.76
2023-08-23T02:03:17.497Z,68.87
2023-08-23T02:04:20.815Z,68.52
2023-08-23T02:05:22.640Z,68.36
2023-08-23T02:06:24.444Z,69.35
2023-08-23T02:07:26.241Z,69.01
2023-08-23T02:08:28.095Z,69.01
2023-08-23T02:09:32.161Z,68.72
2023-08-23T02:10:34.020Z,69.02
2023-08-23T02:11:37.861Z,68.81
2023-08-23T02:12:41.835Z,69.53
2023-08-23T02:13:43.632Z,69.04
2023-08-23T02:14:45.484Z,69.26
2023-08-23T02:15:47.432Z,69.14
2023-08-23T02:16:49.514Z,69.78
2023-08-23T02:17:53.860Z,69.12
2023-08-23T02:18:56.515Z,69.88
2023-08-23T02:19:58.292Z,69.56
2023-08-23T02:21:00.698Z,69.40
2023-08-23T02:22:02.579Z,69.42
2023-08-23T02:23:04.820Z,69.64
2023-08-23T02:24:08.817Z,69.78
2023-08-23T02:25:10.647Z,69.89
2023-08-23T02:26:12.462Z,69.69
2023-08-23T02:27:14.396Z,69.67
2023-08-23T02:28:16.381Z,69.98
2023-08-23T02:29:18.184Z,69.59
2023-08-23T02:30:20.169Z,70.13
2023-08-23T02:31:22.039Z,70.05
2023-08-23T02:32:24.511Z,70.28
2023-08-23T02:33:26.369Z,70.12
2023-08-23T02:34:28.180Z,70.42
2023-08-23T02:35:30.083Z,70.14
2023-08-23T02:36:31.894Z,70.27
2023-08-23T02:37:33.674Z,70.21
2023-08-23T02:38:35.562Z,70.52
2023-08-23T02:39:37.348Z,70.38
2023-08-23T02:40:43.789Z,70.72
2023-08-23T02:41:45.584Z,70.18
2023-08-23T02:42:47.485Z,70.55
2023-08-23T02:43:49.303Z,70.20
2023-08-23T02:44:51.151Z,70.10
2023-08-23T02:45:53.049Z,70.22
2023-08-23T02:46:54.957Z,71.00
2023-08-23T02:47:57.110Z,70.31
2023-08-23T02:48:58.950Z,71.21
2023-08-23T02:50:00.742Z,70.31
2023-08-23T02:51:03.260Z,70.45
2023-08-23T02:52:05.744Z,70.52
2023-08-23T02:53:07.691Z,71.12
2023-08-23T02:54:10.146Z,70.97
2023-08-23T02:55:12.090Z,71.25
2023-08-23T02:56:13.923Z,71.44
2023-08-23T02:57:15.730Z,71.43
2023-08-23T02:58:17.620Z,71.26
2023-08-23T02:59:19.467Z,70.83
2023-08-23T03:00:21.417Z,71.19
2023-08-23T03:01:23.256Z,70.84
2023-08-23T03:02:25.161Z,71.56
2023-08-23T03:03:27.100Z,71.15
2023-08-23T03:04:28.984Z,71.13
2023-08-23T03:05:31.640Z,70.77
2023-08-23T03:06:33.483Z,71.23
2023-08-23T03:07:35.846Z,71.50
2023-08-23T03:08:37.702Z,71.54
2023-08-23T03:09:40.405Z,71.09
2023-08-23T03:10:42.654Z,71.29
2023-08-23T03:11:44.465Z,71.19
2023-08-23T03:12:46.253Z,70.88
2023-08-23T03:13:48.105Z,71.32
2023-08-23T03:14:49.925Z,71.31
2023-08-23T03:15:56.097Z,71.83
2023-08-23T03:16:57.987Z,70.79
2023-08-23T03:17:59.928Z,70.96
2023-08-23T03:19:01.739Z,71.32
2023-08-23T03:20:04.285Z,71.02
2023-08-23T03:21:06.262Z,71.42
2023-08-23T03:22:08.200Z,71.47
2023-08-23T03:23:10.001Z,71.54
2023-08-23T03:24:11.793Z,71.56
2023-08-23T03:25:13.810Z,70.86
2023-08-23T03:26:15.618Z,70.95
2023-08-23T03:27:19.522Z,71.15
2023-08-23T03:28:21.400Z,71.35
2023-08-23T03:29:23.254Z,71.29
2023-08-23T03:30:25.075Z,72.08
2023-08-23T03:31:26.884Z,71.39
2023-08-23T03:32:28.729Z,71.20
2023-08-23T03:33:31.144Z,71.61
2023-08-23T03:34:32.994Z,71.68
2023-08-23T03:35:37.996Z,71.02
2023-08-23T03:36:39.796Z,71.72
2023-08-23T03:37:41.618Z,71.11
2023-08-23T03:38:43.416Z,71.26
2023-08-23T03:39:45.324Z,71.66
2023-08-23T03:40:47.189Z,71.54
2023-08-23T03:41:49.322Z,71.63
2023-08-23T03:42:51.551Z,71.90
2023-08-23T03:43:53.295Z,71.49
2023-08-23T03:44:55.220Z,71.55
2023-08-23T03:45:57.016Z,71.73
2023-08-23T03:46:59.083Z,71.48
2023-08-23T03:48:01.016Z,71.46
2023-08-23T03:49:02.858Z,71.51
2023-08-23T03:50:05.326Z,71.33
2023-08-23T03:51:07.246Z,71.94
2023-08-23T03:52:09.074Z,71.80
2023-08-23T03:53:11.175Z,72.15
2023-08-23T03:54:12.983Z,72.02
2023-08-23T03:55:14.998Z,71.31
2023-08-23T03:56:16.877Z,72.52
2023-08-23T03:57:18.661Z,72.53
2023-08-23T03:58:21.814Z,72.42
2023-08-23T03:59:23.700Z,72.25
2023-08-23T04:00:25.514Z,72.01
2023-08-23T04:01:27.451Z,71.90
2023-08-23T04:02:29.318Z,72.58
2023-08-23T04:03:31.223Z,72.52
2023-08-23T04:04:33.309Z,72.40
2023-08-23T04:05:41.282Z,72.90
2023-08-23T04:06:43.177Z,72.73
2023-08-23T04:07:44.991Z,72.88
2023-08-23T04:08:46.800Z,73.03
2023-08-23T04:09:48.617Z,73.18
2023-08-23T04:10:52.007Z,72.55
2023-08-23T04:11:53.830Z,73.07
2023-08-23T04:12:55.655Z,73.23
2023-08-23T04:13:57.507Z,73.70
2023-08-23T04:14:59.450Z,73.39
2023-08-23T04:16:01.370Z,73.24
2023-08-23T04:17:05.073Z,73.39
2023-08-23T04:18:07.119Z,73.69
2023-08-23T04:19:09.039Z,73.65
2023-08-23T04:20:11.933Z,73.79
2023-08-23T04:21:13.783Z,73.29
2023-08-23T04:22:15.652Z,73.60
2023-08-23T04:23:17.442Z,73.95
2023-08-23T04:24:19.249Z,73.78
2023-08-23T04:25:21.333Z,73.34
2023-08-23T04:26:23.262Z,74.21
2023-08-23T04:27:25.065Z,74.27
2023-08-23T04:28:26.856Z,74.29
2023-08-23T04:29:28.667Z,73.85
2023-08-23T04:30:30.524Z,73.91
2023-08-23T04:31:32.702Z,74.33
2023-08-23T04:32:34.696Z,74.03
2023-08-23T04:33:36.779Z,73.71
2023-08-23T04:34:38.569Z,73.91
2023-08-23T04:35:40.474Z,74.19
2023-08-23T04:36:42.327Z,73.90
2023-08-23T04:37:44.117Z,74.80
2023-08-23T04:38:45.892Z,74.34
2023-08-23T04:39:48.506Z,74.38
2023-08-23T04:40:58.829Z,74.52
2023-08-23T04:42:00.784Z,74.52
2023-08-23T04:43:02.821Z,74.48
2023-08-23T04:44:04.920Z,74.08
2023-08-23T04:45:07.331Z,74.71
2023-08-23T04:46:09.176Z,75.03
2023-08-23T04:47:11.399Z,74.86
2023-08-23T04:48:14.228Z,74.69
2023-08-23T04:49:16.055Z,75.13
2023-08-23T04:50:18.018Z,75.16
2023-08-23T04:51:19.810Z,75.18
2023-08-23T04:52:21.865Z,75.34
2023-08-23T04:53:25.238Z,75.17
2023-08-23T04:54:27.162Z,74.38
2023-08-23T04:55:29.006Z,74.96
2023-08-23T04:56:30.920Z,74.75
2023-08-23T04:57:32.870Z,75.17
2023-08-23T04:58:34.653Z,74.50
2023-08-23T04:59:36.913Z,75.14
2023-08-23T05:00:38.745Z,74.57
2023-08-23T05:01:40.639Z,74.65
2023-08-23T05:02:42.679Z,74.56
2023-08-23T05:03:44.601Z,74.95
2023-08-23T05:04:46.425Z,75.08
2023-08-23T05:05:48.296Z,75.08
2023-08-23T05:06:50.153Z,75.05
2023-08-23T05:07:52.070Z,75.12
2023-08-23T05:08:54.088Z,74.91
2023-08-23T05:09:55.995Z,74.71
2023-08-23T05:10:57.913Z,74.72
2023-08-23T05:11:59.806Z,75.16
2023-08-23T05:13:01.942Z,75.35
2023-08-23T05:14:03.832Z,75.03
2023-08-23T05:15:07.042Z,75.63
2023-08-23T05:16:09.026Z,75.12
2023-08-23T05:17:10.870Z,75.40
2023-08-23T05:18:13.419Z,74.96
2023-08-23T05:19:15.213Z,74.85
2023-08-23T05:20:18.839Z,74.96
2023-08-23T05:21:20.809Z,74.93
2023-08-23T05:22:22.657Z,74.77
2023-08-23T05:23:25.575Z,74.61
2023-08-23T05:24:27.444Z,74.17
2023-08-23T05:25:29.780Z,74.25
2023-08-23T05:26:31.664Z,74.40
2023-08-23T05:27:33.569Z,73.87
2023-08-23T05:28:35.440Z,73.51
2023-08-23T05:29:37.201Z,73.65
2023-08-23T05:30:42.790Z,73.69
2023-08-23T05:31:44.604Z,73.53
2023-08-23T05:32:46.526Z,73.05
2023-08-23T05:33:48.398Z,73.12
2023-08-23T05:34:50.509Z,72.92
2023-08-23T05:35:52.337Z,73.22
2023-08-23T05:36:54.136Z,73.00
2023-08-23T05:37:58.683Z,73.12
2023-08-23T05:39:04.568Z,73.01
2023-08-23T05:40:08.948Z,72.70
2023-08-23T05:41:10.743Z,72.55
2023-08-23T05:42:12.599Z,72.64
2023-08-23T05:43:14.554Z,72.88
2023-08-23T05:44:16.342Z,72.73
2023-08-23T05:45:18.205Z,72.15
2023-08-23T05:46:20.214Z,72.65
2023-08-23T05:47:22.123Z,72.20
2023-08-23T05:48:24.263Z,72.74
2023-08-23T05:49:26.110Z,71.91
2023-08-23T05:50:28.013Z,72.35
2023-08-23T05:51:29.880Z,72.88
2023-08-23T05:52:31.620Z,72.39
2023-08-23T05:53:33.465Z,71.71
2023-08-23T05:54:38.257Z,71.82
2023-08-23T05:55:40.108Z,71.06
2023-08-23T05:56:41.939Z,70.12
2023-08-23T05:57:44.135Z,69.77
2023-08-23T05:58:45.893Z,69.33
2023-08-23T05:59:47.687Z,69.80
2023-08-23T06:00:50.405Z,68.60
2023-08-23T06:01:52.311Z,68.13
2023-08-23T06:02:54.226Z,67.27
2023-08-23T06:03:56.101Z,65.79
2023-08-23T06:06:02.242Z,64.96
2023-08-23T06:07:07.686Z,63.86
2023-08-23T06:08:10.312Z,62.50
2023-08-23T06:09:12.112Z,62.82
2023-08-23T06:10:13.937Z,62.30
2023-08-23T06:11:15.682Z,61.10
2023-08-23T06:12:17.522Z,60.95
2023-08-23T06:13:19.741Z,60.54
2023-08-23T06:14:25.756Z,59.75
2023-08-23T06:15:27.758Z,58.86
2023-08-23T06:16:29.554Z,58.28
2023-08-23T06:17:31.417Z,58.73
2023-08-23T06:18:33.215Z,58.52
2023-08-23T06:19:35.130Z,57.27
2023-08-23T06:20:36.986Z,56.90
2023-08-23T06:21:41.348Z,57.03
2023-08-23T06:22:44.468Z,56.48
2023-08-23T06:23:46.238Z,55.67
2023-08-23T06:24:48.041Z,55.75
2023-08-23T06:25:49.880Z,55.24
2023-08-23T06:26:51.810Z,55.09
2023-08-23T06:27:53.698Z,54.73
2023-08-23T06:28:55.547Z,55.30
2023-08-23T06:29:57.525Z,54.80
2023-08-23T06:30:59.982Z,54.46
2023-08-23T06:32:01.784Z,54.37
2023-08-23T06:33:05.277Z,54.00
2023-08-23T06:34:07.160Z,53.99
2023-08-23T06:35:09.238Z,53.90
2023-08-23T06:36:11.070Z,54.53
2023-08-23T06:37:12.849Z,53.98
2023-08-23T06:38:16.929Z,53.42
2023-08-23T06:39:32.580Z,53.25
2023-08-23T06:40:34.864Z,52.60
2023-08-23T06:41:36.825Z,52.21
2023-08-23T06:42:40.009Z,53.07
2023-08-23T06:43:42.225Z,52.09
2023-08-23T06:44:45.275Z,51.69
2023-08-23T06:45:47.288Z,51.79
2023-08-23T06:46:49.128Z,50.49
2023-08-23T06:47:51.382Z,50.61
2023-08-23T06:48:54.933Z,51.06
2023-08-23T06:49:56.768Z,50.32
2023-08-23T06:51:03.435Z,50.79
2023-08-23T06:52:05.714Z,48.84
2023-08-23T06:53:07.533Z,48.00
2023-08-23T06:54:09.394Z,48.18
2023-08-23T06:55:11.209Z,46.85
2023-08-23T06:56:13.389Z,46.20
2023-08-23T06:57:15.186Z,44.96
2023-08-23T06:58:17.024Z,45.22
2023-08-23T06:59:18.935Z,45.37
2023-08-23T07:00:21.769Z,44.51
2023-08-23T07:01:23.719Z,43.81
2023-08-23T07:02:26.887Z,44.30
2023-08-23T07:03:28.898Z,44.26
2023-08-23T07:04:31.156Z,44.70
2023-08-23T07:05:36.055Z,44.70
2023-08-23T07:06:38.206Z,44.61
2023-08-23T07:07:39.990Z,44.43
2023-08-23T07:08:45.222Z,43.36
2023-08-23T07:09:47.446Z,43.19
2023-08-23T07:10:49.303Z,43.09
2023-08-23T07:11:51.368Z,42.79
2023-08-23T07:12:53.211Z,43.43
2023-08-23T07:13:55.313Z,43.36
2023-08-23T07:14:57.109Z,42.96
2023-08-23T07:15:58.947Z,44.17
2023-08-23T07:17:00.816Z,43.95
2023-08-23T07:18:02.942Z,43.33
2023-08-23T07:19:06.002Z,43.61
2023-08-23T07:20:10.780Z,43.73
2023-08-23T07:21:12.608Z,42.94
2023-08-23T07:22:14.943Z,43.79
2023-08-23T07:23:16.776Z,43.71
2023-08-23T07:24:18.598Z,43.39
2023-08-23T07:25:20.767Z,43.49
2023-08-23T07:26:22.932Z,43.70
2023-08-23T07:27:25.116Z,43.80
2023-08-23T07:28:28.584Z,43.60
2023-08-23T07:29:30.493Z,43.35
2023-08-23T07:30:32.359Z,42.50
2023-08-23T07:31:34.224Z,42.69
2023-08-23T07:32:36.142Z,41.77
2023-08-23T07:33:38.036Z,41.68
2023-08-23T07:34:39.922Z,41.85
2023-08-23T07:35:41.857Z,42.06
2023-08-23T07:36:43.768Z,42.42
2023-08-23T07:37:46.117Z,42.66
2023-08-23T07:38:48.229Z,43.14
2023-08-23T07:39:50.218Z,42.77
2023-08-23T07:40:59.105Z,42.62
2023-08-23T07:42:00.909Z,43.28
2023-08-23T07:43:02.851Z,43.06
2023-08-23T07:44:04.969Z,42.96
2023-08-23T07:45:08.924Z,41.99
2023-08-23T07:46:10.825Z,41.75
2023-08-23T07:47:12.649Z,42.07
2023-08-23T07:48:14.475Z,41.49
2023-08-23T07:49:16.739Z,40.99
2023-08-23T07:50:18.676Z,40.79
2023-08-23T07:51:20.530Z,40.21
2023-08-23T07:52:22.714Z,40.31
2023-08-23T07:53:25.582Z,40.23
2023-08-23T07:54:28.773Z,39.89
2023-08-23T07:55:30.672Z,39.94
2023-08-23T07:56:32.939Z,39.93
2023-08-23T07:57:34.882Z,40.28
2023-08-23T07:58:39.705Z,40.98
2023-08-23T07:59:41.592Z,40.64
2023-08-23T08:00:43.710Z,41.41
2023-08-23T08:01:45.606Z,41.41
2023-08-23T08:02:47.485Z,42.12
2023-08-23T08:03:49.481Z,42.63
2023-08-23T08:04:51.429Z,42.67
2023-08-23T08:05:53.260Z,43.01
2023-08-23T08:06:55.100Z,42.73
2023-08-23T08:08:09.063Z,42.92
2023-08-23T08:09:11.898Z,42.35
2023-08-23T08:10:13.816Z,42.77
2023-08-23T08:11:16.260Z,42.44
2023-08-23T08:12:18.097Z,42.23
2023-08-23T08:13:20.055Z,42.31
2023-08-23T08:14:21.869Z,42.17
2023-08-23T08:15:23.891Z,41.86
2023-08-23T08:16:25.719Z,42.23
2023-08-23T08:17:27.626Z,42.64
2023-08-23T08:18:29.564Z,42.08
2023-08-23T08:19:31.487Z,42.03
2023-08-23T08:20:33.343Z,41.96
2023-08-23T08:21:35.301Z,40.61
2023-08-23T08:22:38.726Z,40.93
2023-08-23T08:23:40.591Z,40.48
2023-08-23T08:24:42.441Z,41.40
2023-08-23T08:25:44.277Z,40.90
2023-08-23T08:26:46.141Z,41.40
2023-08-23T08:27:48.496Z,41.80
2023-08-23T08:28:50.702Z,41.38
2023-08-23T08:29:52.562Z,41.44
2023-08-23T08:30:54.552Z,41.61
2023-08-23T08:31:56.488Z,41.84
2023-08-23T08:32:58.339Z,41.35
2023-08-23T08:34:01.054Z,41.22
2023-08-23T08:35:03.090Z,41.88
2023-08-23T08:36:05.237Z,41.96
2023-08-23T08:37:07.705Z,41.03
2023-08-23T08:38:09.851Z,41.25
2023-08-23T08:39:11.889Z,41.40
2023-08-23T08:40:13.964Z,41.44
2023-08-23T08:41:16.424Z,41.47
2023-08-23T08:42:18.442Z,41.39
2023-08-23T08:43:21.522Z,40.83
2023-08-23T08:44:24.277Z,41.37
2023-08-23T08:45:26.371Z,40.43
2023-08-23T08:46:28.474Z,42.18
2023-08-23T08:47:30.519Z,41.34
2023-08-23T08:48:32.496Z,41.48
2023-08-23T08:49:34.666Z,41.30
2023-08-23T08:50:37.442Z,41.88
2023-08-23T08:51:46.118Z,42.00
2023-08-23T08:52:54.169Z,41.75
2023-08-23T08:53:58.005Z,41.10
2023-08-23T08:55:02.887Z,41.72
2023-08-23T08:56:06.982Z,41.37
2023-08-23T08:57:11.960Z,41.40
2023-08-23T08:58:20.276Z,40.81
2023-08-23T08:59:22.440Z,40.58
2023-08-23T09:00:31.134Z,39.56
2023-08-23T09:01:36.463Z,40.27
2023-08-23T09:02:41.143Z,39.89
2023-08-23T09:03:43.198Z,39.50
2023-08-23T09:04:49.721Z,39.87
2023-08-23T09:05:52.938Z,40.35
2023-08-23T09:06:56.147Z,40.68
2023-08-23T09:07:58.748Z,39.96
2023-08-23T09:09:02.542Z,40.36
2023-08-23T09:10:04.985Z,40.02
2023-08-23T09:11:06.832Z,39.94
2023-08-23T09:12:09.010Z,39.85
2023-08-23T09:13:11.010Z,39.43
2023-08-23T09:14:19.398Z,38.83
2023-08-23T09:15:26.395Z,38.64
2023-08-23T09:16:28.335Z,38.61
2023-08-23T09:17:34.333Z,38.24
2023-08-23T09:18:36.365Z,38.71
2023-08-23T09:19:41.807Z,38.49
2023-08-23T09:20:44.046Z,38.57
2023-08-23T09:21:51.735Z,39.42
2023-08-23T09:22:57.161Z,38.72
2023-08-23T09:24:01.692Z,39.40
2023-08-23T09:25:06.824Z,40.37
2023-08-23T09:26:09.345Z,40.58
2023-08-23T09:27:17.182Z,40.33
2023-08-23T09:28:30.059Z,41.58
2023-08-23T09:29:32.942Z,41.19
2023-08-23T09:30:36.328Z,41.62
2023-08-23T09:31:40.811Z,41.08
2023-08-23T09:32:43.838Z,41.13
2023-08-23T09:33:47.290Z,41.55
2023-08-23T09:34:49.304Z,41.77
2023-08-23T09:35:51.479Z,41.27
2023-08-23T09:36:54.375Z,42.16
2023-08-23T09:37:57.239Z,40.74
2023-08-23T09:39:00.380Z,40.79
2023-08-23T09:40:02.322Z,41.07
2023-08-23T09:41:04.657Z,40.67
2023-08-23T09:42:07.332Z,40.92
2023-08-23T09:43:10.927Z,39.88
2023-08-23T09:44:14.163Z,40.73
2023-08-23T09:45:23.133Z,41.01
2023-08-23T09:46:28.855Z,41.87
2023-08-23T09:47:34.660Z,42.29
2023-08-23T09:48:41.224Z,41.58
2023-08-23T09:49:45.620Z,41.72
2023-08-23T09:50:52.732Z,41.88
2023-08-23T09:51:56.011Z,41.63
2023-08-23T09:53:29.265Z,41.44
2023-08-23T09:55:14.212Z,42.23
2023-08-23T09:56:17.573Z,43.02
2023-08-23T09:57:22.185Z,43.74
2023-08-23T09:58:25.027Z,43.74
2023-08-23T09:59:27.223Z,43.71
2023-08-23T10:00:30.233Z,44.20
2023-08-23T10:01:33.925Z,44.80
2023-08-23T10:02:38.412Z,44.42
2023-08-23T10:03:42.251Z,45.04
2023-08-23T10:04:46.012Z,43.94
2023-08-23T10:05:50.689Z,44.66
2023-08-23T10:06:54.044Z,45.05
2023-08-23T10:07:57.853Z,44.59
2023-08-23T10:09:04.444Z,43.45
2023-08-23T10:10:07.579Z,44.16
2023-08-23T10:11:09.448Z,44.07
2023-08-23T10:12:13.909Z,42.71
2023-08-23T10:13:16.235Z,42.23
2023-08-23T10:14:19.666Z,42.93
2023-08-23T10:15:39.913Z,42.86
2023-08-23T10:16:44.205Z,43.13
2023-08-23T10:17:49.071Z,44.00
2023-08-23T10:18:53.175Z,43.87
2023-08-23T10:19:55.255Z,44.44
2023-08-23T10:20:57.832Z,44.70
2023-08-23T10:21:59.838Z,43.51
2023-08-23T10:23:01.607Z,43.70
2023-08-23T10:24:07.634Z,44.29
2023-08-23T10:25:18.501Z,44.25
2023-08-23T10:26:23.092Z,44.57
2023-08-23T10:27:25.808Z,44.17
2023-08-23T10:28:28.167Z,44.24
2023-08-23T10:29:31.652Z,44.62
2023-08-23T10:30:33.540Z,44.64
2023-08-23T10:31:35.400Z,43.11
2023-08-23T10:32:38.053Z,42.61
2023-08-23T10:33:43.249Z,43.51
2023-08-23T10:34:45.523Z,44.18
2023-08-23T10:35:49.004Z,44.26
2023-08-23T10:36:50.844Z,44.18
2023-08-23T10:37:54.562Z,44.37
2023-08-23T10:39:00.155Z,43.57
2023-08-23T10:40:02.299Z,43.75
2023-08-23T10:41:04.184Z,43.59
2023-08-23T10:42:06.357Z,43.09
2023-08-23T10:43:20.964Z,43.77
2023-08-23T10:44:23.915Z,42.19
2023-08-23T10:45:27.130Z,42.51
2023-08-23T10:46:31.279Z,43.63
2023-08-23T10:47:38.175Z,43.62
2023-08-23T10:48:41.116Z,43.50
2023-08-23T10:49:44.122Z,42.69
2023-08-23T10:50:48.408Z,43.04
2023-08-23T10:51:51.162Z,43.45
2023-08-23T10:52:53.026Z,43.26
2023-08-23T10:53:54.940Z,43.78
2023-08-23T10:54:58.600Z,43.43
2023-08-23T10:56:04.022Z,43.27
2023-08-23T10:57:05.979Z,43.59
2023-08-23T10:58:07.864Z,43.61
2023-08-23T10:59:09.929Z,43.81
2023-08-23T11:00:13.076Z,42.86
2023-08-23T11:01:14.953Z,43.41
2023-08-23T11:02:17.470Z,43.25
2023-08-23T11:03:21.370Z,43.25
2023-08-23T11:04:24.634Z,43.36
2023-08-23T11:05:27.273Z,42.77
2023-08-23T11:06:29.558Z,43.12
2023-08-23T11:07:32.408Z,43.64
2023-08-23T11:08:34.350Z,43.40
2023-08-23T11:09:36.875Z,43.19
2023-08-23T11:10:39.004Z,43.48
2023-08-23T11:11:40.877Z,43.15
2023-08-23T11:12:42.692Z,43.31
2023-08-23T11:13:47.516Z,43.98
2023-08-23T11:14:49.383Z,43.44
2023-08-23T11:15:51.239Z,43.08
2023-08-23T11:16:53.093Z,43.07
2023-08-23T11:17:57.035Z,43.71
2023-08-23T11:18:58.892Z,42.87
2023-08-23T11:20:01.878Z,43.41
2023-08-23T11:21:04.091Z,43.03
2023-08-23T11:22:08.207Z,43.35
2023-08-23T11:23:10.854Z,43.22
2023-08-23T11:24:12.981Z,43.90
2023-08-23T11:25:14.858Z,42.89
2023-08-23T11:26:16.734Z,43.70
2023-08-23T11:27:18.588Z,43.30
2023-08-23T11:28:22.053Z,43.42
2023-08-23T11:29:24.202Z,44.00
2023-08-23T11:30:27.925Z,43.16
2023-08-23T11:31:32.822Z,43.35
2023-08-23T11:32:36.412Z,43.28
2023-08-23T11:33:38.760Z,42.63
2023-08-23T11:34:41.276Z,42.82
2023-08-23T11:35:43.276Z,43.29
2023-08-23T11:36:46.165Z,42.67
2023-08-23T11:37:53.056Z,43.28
2023-08-23T11:38:54.982Z,42.88
2023-08-23T11:40:06.033Z,43.39
2023-08-23T11:41:09.885Z,43.53
2023-08-23T11:42:11.689Z,41.86
2023-08-23T11:43:22.795Z,42.04
2023-08-23T11:44:28.148Z,41.60
2023-08-23T11:45:41.304Z,42.31
2023-08-23T11:46:43.761Z,42.85
2023-08-23T11:47:46.789Z,42.27
2023-08-23T11:48:49.031Z,42.87
2023-08-23T11:49:56.048Z,43.05
2023-08-23T11:50:59.806Z,42.48
2023-08-23T11:52:02.868Z,42.33
2023-08-23T11:53:08.190Z,43.20
2023-08-23T11:54:12.456Z,43.22
2023-08-23T11:55:23.157Z,43.42
2023-08-23T11:56:27.730Z,42.58
2023-08-23T11:57:33.941Z,43.74
2023-08-23T11:58:35.714Z,43.10
2023-08-23T11:59:37.536Z,43.39
2023-08-23T12:00:39.626Z,42.66
2023-08-23T12:01:45.639Z,43.26
2023-08-23T12:02:47.719Z,43.69
2023-08-23T12:03:49.554Z,43.59
2023-08-23T12:04:51.735Z,43.54
2023-08-23T12:05:53.586Z,43.05
2023-08-23T12:06:55.440Z,43.27
2023-08-23T12:07:57.551Z,41.32
2023-08-23T12:08:59.350Z,41.31
2023-08-23T12:10:01.151Z,41.79
2023-08-23T12:11:03.655Z,40.97
2023-08-23T12:12:06.329Z,42.03
2023-08-23T12:13:08.162Z,41.73
2023-08-23T12:14:10.522Z,41.76
2023-08-23T12:15:12.521Z,42.48
2023-08-23T12:16:14.544Z,41.86
2023-08-23T12:17:18.921Z,41.84
2023-08-23T12:18:22.458Z,41.09
2023-08-23T12:19:31.719Z,41.68
2023-08-23T12:20:34.515Z,41.43
2023-08-23T12:21:36.467Z,41.03
2023-08-23T12:22:45.447Z,41.52
2023-08-23T12:23:47.567Z,41.89
2023-08-23T12:24:49.469Z,40.89
2023-08-23T12:25:51.997Z,41.31
2023-08-23T12:26:53.846Z,40.90
2023-08-23T12:27:55.616Z,41.77
2023-08-23T12:28:57.408Z,41.33
2023-08-23T12:29:59.201Z,41.14
2023-08-23T12:31:01.018Z,41.57
2023-08-23T12:32:02.903Z,41.80
2023-08-23T12:33:04.951Z,41.16
2023-08-23T12:34:06.835Z,41.24
2023-08-23T12:35:09.478Z,41.80
2023-08-23T12:36:12.128Z,42.77
2023-08-23T12:37:14.454Z,43.00
2023-08-23T12:38:16.325Z,41.55
2023-08-23T12:39:18.138Z,41.07
2023-08-23T12:40:19.989Z,41.77
2023-08-23T12:41:21.937Z,41.04
2023-08-23T12:42:23.767Z,40.49
2023-08-23T12:43:25.619Z,40.80
2023-08-23T12:44:27.480Z,41.48
2023-08-23T12:45:29.450Z,40.61
2023-08-23T12:46:31.310Z,39.92
2023-08-23T12:47:33.123Z,39.96
2023-08-23T12:48:35.015Z,40.43
2023-08-23T12:49:36.896Z,40.12
2023-08-23T12:50:38.725Z,40.86
2023-08-23T12:51:42.260Z,41.23
2023-08-23T12:52:44.542Z,41.78
2023-08-23T12:53:46.318Z,42.09
2023-08-23T12:54:48.168Z,41.67
2023-08-23T12:55:52.477Z,42.28
2023-08-23T12:56:54.306Z,41.80
2023-08-23T12:57:56.113Z,41.93
2023-08-23T12:58:57.960Z,42.21
2023-08-23T13:00:02.625Z,41.58
2023-08-23T13:01:06.222Z,41.92
2023-08-23T13:02:08.124Z,41.74
2023-08-23T13:03:10.097Z,41.63
2023-08-23T13:04:13.037Z,41.01
2023-08-23T13:05:14.957Z,41.20
2023-08-23T13:06:16.906Z,40.25
2023-08-23T13:07:18.720Z,41.02
2023-08-23T13:08:20.548Z,40.80
2023-08-23T13:09:23.122Z,40.65
2023-08-23T13:10:24.974Z,39.32
2023-08-23T13:11:27.001Z,40.03
2023-08-23T13:12:28.805Z,41.04
2023-08-23T13:13:30.602Z,40.78
2023-08-23T13:14:32.358Z,41.25
2023-08-23T13:15:34.286Z,40.65
2023-08-23T13:16:36.119Z,39.43
2023-08-23T13:17:38.003Z,38.60
2023-08-23T13:18:39.786Z,39.15
2023-08-23T13:19:41.609Z,38.83
2023-08-23T13:20:43.484Z,39.22
2023-08-23T13:21:45.248Z,39.80
2023-08-23T13:22:47.137Z,40.21
2023-08-23T13:23:48.989Z,39.60
2023-08-23T13:24:51.533Z,39.09
2023-08-23T13:25:57.105Z,39.88
2023-08-23T13:26:59.472Z,39.60
2023-08-23T13:28:01.364Z,39.57
2023-08-23T13:29:03.158Z,39.91
2023-08-23T13:30:07.166Z,40.10
2023-08-23T13:31:09.032Z,40.71
2023-08-23T13:32:25.183Z,40.70
2023-08-23T13:33:29.344Z,41.24
2023-08-23T13:34:31.202Z,41.31